Time;durP1;ratioP1;P1;durP2;ratioP2;P2;SDS_P1;SDS_P2;PMS_P1;PMS_P2;Temp;Humidity;BMP_temperature;BMP_pressure;BME280_temperature;BME280_humidity;BME280_pressure;Samples;Min_cycle;Max_cycle;Signal;HPM_P1;HPM_P2
2022/04/27 00:00:24;;;;;;;13.80;7.70;;;;;;;7.58;100.00;99296.34;5050055;28;20041;-77
2022/04/27 00:02:51;;;;;;;13.15;7.90;;;;;;;7.68;100.00;99309.78;5048297;28;20041;-77
2022/04/27 00:05:17;;;;;;;14.18;8.13;;;;;;;7.74;100.00;99316.41;5047195;28;20045;-77
2022/04/27 00:07:44;;;;;;;14.07;8.80;;;;;;;7.53;100.00;99295.16;5047608;28;20053;-77
2022/04/27 00:10:10;;;;;;;15.00;8.65;;;;;;;7.60;100.00;99290.78;5046246;28;21402;-77
2022/04/27 00:12:38;;;;;;;12.02;8.13;;;;;;;7.58;100.00;99301.75;5045354;28;20037;-77
2022/04/27 00:15:08;;;;;;;15.35;8.77;;;;;;;7.53;100.00;99289.75;5048782;28;20045;-77
2022/04/27 00:17:34;;;;;;;13.90;8.68;;;;;;;7.68;100.00;99309.78;5046380;28;20040;-77
2022/04/27 00:20:01;;;;;;;13.25;8.75;;;;;;;7.59;100.00;99284.53;5048418;28;20489;-77
2022/04/27 00:22:27;;;;;;;12.48;8.85;;;;;;;7.59;100.00;99294.53;5050172;28;20052;-77
2022/04/27 00:24:54;;;;;;;14.48;8.85;;;;;;;7.60;100.00;99307.00;5047058;28;20056;-77
2022/04/27 00:27:20;;;;;;;16.33;9.85;;;;;;;7.61;100.00;99303.31;5046428;28;20057;-77
2022/04/27 00:29:47;;;;;;;17.35;10.35;;;;;;;7.51;100.00;99289.94;5048321;28;20498;-77
2022/04/27 00:32:14;;;;;;;16.40;9.70;;;;;;;7.52;100.00;99294.31;5049559;28;20044;-77
2022/04/27 00:34:41;;;;;;;14.35;9.38;;;;;;;7.62;100.00;99313.97;5043623;28;20048;-77
2022/04/27 00:37:07;;;;;;;14.77;9.70;;;;;;;7.71;100.00;99311.31;5047146;28;20049;-77
2022/04/27 00:39:34;;;;;;;15.93;10.90;;;;;;;7.77;100.00;99326.91;5049271;28;20045;-77
2022/04/27 00:42:13;;;;;;;16.65;10.00;;;;;;;7.79;100.00;99314.03;5050191;28;20049;-77
2022/04/27 00:44:43;;;;;;;17.35;11.00;;;;;;;7.60;100.00;99288.06;5047368;28;20049;-77
2022/04/27 00:47:10;;;;;;;17.67;10.43;;;;;;;7.50;100.00;99292.75;5045901;28;20052;-77
2022/04/27 00:49:41;;;;;;;19.40;10.90;;;;;;;7.41;100.00;99314.38;5045198;28;20045;-77
2022/04/27 00:52:12;;;;;;;17.30;10.40;;;;;;;7.49;100.00;99324.38;5041279;28;20598;-77
2022/04/27 00:54:38;;;;;;;;;;;;;;;7.63;100.00;99339.16;5042389;28;20056;-77
2022/04/27 00:57:05;;;;;;;17.02;11.32;;;;;;;7.59;100.00;99311.59;5050022;28;19921;-77
2022/04/27 00:59:31;;;;;;;20.40;12.02;;;;;;;7.71;100.00;99304.03;5046206;28;20408;-77
2022/04/27 01:01:58;;;;;;;20.48;11.75;;;;;;;7.66;100.00;99308.22;5049806;28;20056;-77
2022/04/27 01:04:26;;;;;;;21.00;12.57;;;;;;;7.79;100.00;99336.53;5040831;28;20402;-77
2022/04/27 01:06:53;;;;;;;17.85;11.13;;;;;;;7.61;100.00;99316.84;5041495;28;20128;-77
2022/04/27 01:09:22;;;;;;;18.42;11.68;;;;;;;7.59;100.00;99335.09;5050054;28;20059;-77
2022/04/27 01:11:49;;;;;;;21.40;12.40;;;;;;;7.57;100.00;99327.16;5047465;28;20055;-77
2022/04/27 01:14:15;;;;;;;19.65;12.40;;;;;;;7.68;100.00;99333.25;5043807;28;20048;-77
2022/04/27 01:16:42;;;;;;;20.08;12.85;;;;;;;7.86;100.00;99344.88;5047752;28;20049;-77
2022/04/27 01:19:08;;;;;;;23.05;13.40;;;;;;;7.73;100.00;99334.47;5044069;28;20053;-77
2022/04/27 01:21:36;;;;;;;20.40;12.82;;;;;;;7.78;100.00;99339.41;5046377;28;20041;-78
2022/04/27 01:24:05;;;;;;;19.98;12.00;;;;;;;7.87;100.00;99346.53;5044982;28;20052;-77
2022/04/27 01:26:32;;;;;;;20.52;12.88;;;;;;;7.80;100.00;99348.22;5044666;28;20528;-77
2022/04/27 01:28:59;;;;;;;21.52;12.70;;;;;;;7.57;100.00;99320.88;5048495;28;20051;-77
2022/04/27 01:31:25;;;;;;;24.55;14.32;;;;;;;7.82;100.00;99353.47;5046659;28;20044;-77
2022/04/27 01:33:52;;;;;;;19.88;11.90;;;;;;;7.68;100.00;99323.31;5046901;28;20048;-77
2022/04/27 01:36:18;;;;;;;21.23;12.57;;;;;;;7.62;100.00;99322.09;5053941;28;20037;-77
2022/04/27 01:38:46;;;;;;;20.20;12.85;;;;;;;7.73;100.00;99329.06;5059273;28;20405;-77
2022/04/27 01:41:12;;;;;;;22.10;12.90;;;;;;;7.75;100.00;99332.47;5058609;28;20055;-77
2022/04/27 01:43:39;;;;;;;21.27;13.43;;;;;;;7.80;100.00;99340.94;5053566;28;20381;-77
2022/04/27 01:46:06;;;;;;;24.85;14.00;;;;;;;7.95;100.00;99340.34;5051594;28;20492;-77
2022/04/27 01:48:33;;;;;;;21.25;13.02;;;;;;;7.62;100.00;99322.09;5053110;28;20091;-77
2022/04/27 01:50:59;;;;;;;20.42;12.77;;;;;;;7.78;100.00;99356.50;5047417;28;20041;-77
2022/04/27 01:56:26;;;;;;;21.20;13.02;;;;;;;7.82;100.00;99348.06;5041265;28;20049;-77
2022/04/27 01:58:52;;;;;;;21.30;12.82;;;;;;;7.70;100.00;99342.91;5043254;28;20041;-77
2022/04/27 02:01:21;;;;;;;20.90;12.95;;;;;;;7.80;100.00;99337.41;5036169;28;20049;-77
2022/04/27 02:03:48;;;;;;;20.45;12.35;;;;;;;7.72;100.00;99313.00;5050936;28;20420;-77
2022/04/27 02:06:16;;;;;;;23.40;14.15;;;;;;;8.01;100.00;99355.91;5047300;28;20413;-77
2022/04/27 02:08:43;;;;;;;21.80;13.65;;;;;;;7.77;100.00;99360.22;5051652;28;20044;-77
2022/04/27 02:11:09;;;;;;;20.10;12.65;;;;;;;7.67;100.00;99334.28;5053237;28;20531;-77
2022/04/27 02:13:38;;;;;;;23.33;12.88;;;;;;;7.71;100.00;99330.25;5049401;28;20416;-77
2022/04/27 02:16:05;;;;;;;23.20;12.80;;;;;;;7.87;100.00;99357.38;5051072;28;20052;-77
2022/04/27 02:18:31;;;;;;;22.48;13.23;;;;;;;7.85;100.00;99336.91;5050974;28;20049;-77
2022/04/27 02:20:58;;;;;;;20.25;13.20;;;;;;;7.81;100.00;99333.66;5049722;28;20049;-77
2022/04/27 02:23:24;;;;;;;22.70;13.98;;;;;;;7.77;100.00;99318.78;5050768;28;20053;-77
2022/04/27 02:25:51;;;;;;;24.58;14.02;;;;;;;7.92;100.00;99352.31;5048199;28;20080;-77
2022/04/27 02:28:18;;;;;;;22.48;13.82;;;;;;;7.79;100.00;99354.63;5051124;28;20690;-77
2022/04/27 02:30:45;;;;;;;22.35;14.45;;;;;;;7.73;100.00;99358.84;5052847;28;20523;-77
2022/04/27 02:33:12;;;;;;;23.90;13.90;;;;;;;7.59;100.00;99348.63;5050502;28;20131;-77
2022/04/27 02:35:38;;;;;;;20.65;13.25;;;;;;;7.52;100.00;99340.28;5052168;28;20052;-77
2022/04/27 02:38:05;;;;;;;26.00;14.43;;;;;;;7.74;100.00;99374.06;5046771;28;20508;-77
2022/04/27 02:40:32;;;;;;;23.17;13.98;;;;;;;7.61;100.00;99352.84;5052679;28;20045;-77
2022/04/27 02:42:59;;;;;;;19.05;11.63;;;;;;;7.62;100.00;99357.25;5049631;28;20119;-77
2022/04/27 02:45:25;;;;;;;16.48;10.88;;;;;;;7.56;100.00;99352.50;5052036;28;20049;-77
2022/04/27 02:47:53;;;;;;;16.75;10.05;;;;;;;7.37;100.00;99348.16;5049365;28;20048;-77
2022/04/27 02:53:04;;;;;;;15.05;9.45;;;;;;;7.40;100.00;99368.63;5048626;28;20175;-77
2022/04/27 02:55:30;;;;;;;15.27;9.07;;;;;;;7.41;100.00;99373.88;5038787;28;20051;-77
2022/04/27 02:57:57;;;;;;;14.75;7.93;;;;;;;7.56;100.00;99392.25;5045470;28;20511;-77
2022/04/27 03:00:23;;;;;;;11.88;7.88;;;;;;;7.48;100.00;99387.59;5052493;28;20051;-77
2022/04/27 03:02:50;;;;;;;13.35;9.05;;;;;;;7.47;100.00;99358.88;5049539;28;20041;-77
2022/04/27 03:05:18;;;;;;;17.75;10.07;;;;;;;7.60;100.00;99389.06;5049994;28;20049;-77
2022/04/27 03:07:44;;;;;;;18.48;11.10;;;;;;;7.62;100.00;99378.91;5052266;28;20127;-77
2022/04/27 03:10:11;;;;;;;18.50;11.18;;;;;;;7.60;100.00;99380.06;5051821;28;20132;-77
2022/04/27 03:12:37;;;;;;;22.60;12.95;;;;;;;7.42;100.00;99361.19;5045446;28;20056;-77
2022/04/27 03:15:05;;;;;;;18.75;11.30;;;;;;;7.64;100.00;99386.88;5051865;28;20057;-77
2022/04/27 03:17:31;;;;;;;18.58;11.30;;;;;;;7.52;100.00;99361.94;5052847;28;20056;-77
2022/04/27 03:19:58;;;;;;;22.75;12.85;;;;;;;7.66;100.00;99381.28;5050301;28;20059;-77
2022/04/27 03:22:25;;;;;;;20.13;12.15;;;;;;;7.36;100.00;99365.41;5044611;28;20057;-77
2022/04/27 03:24:52;;;;;;;22.75;12.98;;;;;;;7.38;100.00;99376.91;5049096;28;20045;-77
2022/04/27 03:27:18;;;;;;;22.30;12.90;;;;;;;7.41;100.00;99370.34;5044739;28;20057;-77
2022/04/27 03:29:45;;;;;;;23.88;12.27;;;;;;;7.68;100.00;99396.38;5051333;28;20428;-77
2022/04/27 03:32:11;;;;;;;18.30;11.23;;;;;;;7.48;100.00;99374.06;5045926;28;20060;-77
2022/04/27 03:34:38;;;;;;;22.38;12.05;;;;;;;7.60;100.00;99394.47;5047524;28;20052;-77
2022/04/27 03:37:05;;;;;;;18.75;11.57;;;;;;;7.36;100.00;99370.81;5049770;28;20048;-77
2022/04/27 03:39:32;;;;;;;18.08;11.05;;;;;;;7.64;100.00;99402.25;5050227;28;20056;-77
2022/04/27 03:41:59;;;;;;;19.08;10.73;;;;;;;7.63;100.00;99398.69;5050592;28;20065;-77
2022/04/27 03:44:25;;;;;;;16.60;10.88;;;;;;;7.51;100.00;99373.78;5039167;28;20048;-77
2022/04/27 03:46:52;;;;;;;18.48;11.38;;;;;;;7.59;100.00;99387.34;5048908;28;20044;-77
2022/04/27 03:49:18;;;;;;;20.25;12.50;;;;;;;7.61;100.00;99398.84;5050701;28;20049;-77
2022/04/27 03:51:45;;;;;;;19.92;11.73;;;;;;;7.62;100.00;99397.84;5048702;28;20075;-77
2022/04/27 03:54:11;;;;;;;20.40;11.63;;;;;;;7.50;100.00;99380.19;5047687;28;20048;-77
2022/04/27 03:56:39;;;;;;;24.98;12.85;;;;;;;7.53;100.00;99397.97;5046975;28;20053;-77
2022/04/27 03:59:06;;;;;;;20.98;11.77;;;;;;;7.40;100.00;99374.03;5047441;28;20052;-77
2022/04/27 04:01:32;;;;;;;26.63;12.38;;;;;;;7.49;100.00;99381.19;5048889;28;20049;-77
2022/04/27 04:03:59;;;;;;;24.10;13.57;;;;;;;7.61;100.00;99406.97;5046094;28;20057;-77
2022/04/27 04:06:25;;;;;;;25.27;15.15;;;;;;;7.41;100.00;99394.69;5047814;28;20053;-77
2022/04/27 04:08:52;;;;;;;24.52;13.98;;;;;;;7.36;100.00;99375.34;5047791;28;20041;-77
2022/04/27 04:11:19;;;;;;;24.10;14.27;;;;;;;7.50;100.00;99404.53;5050668;28;20053;-75
2022/04/27 04:13:47;;;;;;;20.95;13.80;;;;;;;7.31;100.00;99388.53;5041991;28;20503;-75
2022/04/27 04:16:14;;;;;;;23.92;14.35;;;;;;;7.41;100.00;99394.69;5050881;28;20052;-78
2022/04/27 04:18:40;;;;;;;22.10;13.55;;;;;;;7.30;100.00;99387.69;5049123;28;20047;-77
2022/04/27 04:21:07;;;;;;;24.60;14.30;;;;;;;7.37;100.00;99388.72;5044901;28;20511;-77
2022/04/27 04:23:34;;;;;;;22.95;13.75;;;;;;;7.51;100.00;99421.63;5045617;28;20467;-77
2022/04/27 04:28:44;;;;;;;24.45;13.50;;;;;;;7.48;100.00;99438.16;5048193;28;20055;-78
2022/04/27 04:31:14;;;;;;;23.60;13.27;;;;;;;7.53;100.00;99439.41;5047613;28;20063;-78
2022/04/27 04:33:40;;;;;;;24.05;14.90;;;;;;;7.37;100.00;99418.47;5046728;28;20088;-77
2022/04/27 04:36:08;;;;;;;23.88;13.20;;;;;;;7.32;100.00;99418.13;5050215;28;20416;-78
2022/04/27 04:38:35;;;;;;;29.55;14.60;;;;;;;7.37;100.00;99426.59;5046735;28;20079;-78
2022/04/27 04:41:02;;;;;;;24.15;14.02;;;;;;;7.44;100.00;99433.06;5043034;28;20053;-78
2022/04/27 04:43:31;;;;;;;25.08;13.00;;;;;;;7.61;100.00;99454.84;5048953;28;20053;-78
2022/04/27 04:45:57;;;;;;;25.45;14.43;;;;;;;7.79;100.00;99474.56;5049923;28;20420;-78
2022/04/27 04:48:25;;;;;;;23.35;14.05;;;;;;;7.78;100.00;99469.31;5045933;28;20048;-78
2022/04/27 04:50:51;;;;;;;25.30;15.15;;;;;;;7.60;100.00;99447.72;5048818;28;20481;-78
2022/04/27 04:53:19;;;;;;;23.17;13.07;;;;;;;7.90;100.00;99472.59;5046459;28;20084;-78
2022/04/27 04:55:45;;;;;;;20.15;12.10;;;;;;;7.77;100.00;99470.34;5049272;28;20056;-78
2022/04/27 04:58:12;;;;;;;17.73;9.65;;;;;;;7.73;100.00;99461.66;5045597;28;20052;-78
2022/04/27 05:00:39;;;;;;;19.02;10.55;;;;;;;7.73;100.00;99469.78;5038764;28;20044;-78
2022/04/27 05:03:06;;;;;;;13.50;8.88;;;;;;;7.70;100.00;99461.16;5048433;28;20079;-78
2022/04/27 05:05:34;;;;;;;12.20;8.55;;;;;;;7.75;100.00;99491.28;5048453;28;20051;-78
2022/04/27 05:08:06;;;;;;;13.25;8.32;;;;;;;7.59;100.00;99470.38;5050421;28;20053;-78
2022/04/27 05:10:32;;;;;;;14.65;8.15;;;;;;;7.66;100.00;99470.59;5043407;28;20056;-78
2022/04/27 05:13:00;;;;;;;11.13;6.90;;;;;;;7.87;100.00;99502.69;5045699;28;20492;-78
2022/04/27 05:15:28;;;;;;;11.98;7.93;;;;;;;7.65;100.00;99488.69;5045277;28;20057;-78
2022/04/27 05:17:55;;;;;;;12.15;7.93;;;;;;;7.85;100.00;99491.19;5036968;28;20868;-78
2022/04/27 05:20:22;;;;;;;13.20;8.18;;;;;;;7.73;100.00;99490.59;5050570;28;20055;-77
2022/04/27 05:22:50;;;;;;;12.43;7.72;;;;;;;7.96;100.00;99507.16;5046638;28;20044;-78
2022/04/27 05:25:18;;;;;;;12.02;7.68;;;;;;;8.01;100.00;99515.66;5049840;28;20053;-77
2022/04/27 05:27:44;;;;;;;12.38;7.35;;;;;;;7.91;100.00;99480.56;5047422;28;20141;-77
2022/04/27 05:32:56;;;;;;;9.88;6.70;;;;;;;7.80;100.00;99494.38;5047241;28;20057;-77
2022/04/27 05:35:23;;;;;;;14.52;7.72;;;;;;;7.85;100.00;99488.50;5051009;28;20049;-77
2022/04/27 05:37:51;;;;;;;14.30;7.47;;;;;;;8.05;100.00;99502.63;5033793;28;20052;-75
2022/04/27 05:40:18;;;;;;;9.48;6.90;;;;;;;8.04;100.00;99499.09;5032608;28;20390;-77
2022/04/27 05:42:45;;;;;;;12.85;7.70;;;;;;;8.12;100.00;99496.41;5037697;28;20079;-78
2022/04/27 05:45:11;;;;;;;11.95;7.88;;;;;;;8.04;100.00;99514.47;5044868;28;20053;-77
2022/04/27 05:47:38;;;;;;;10.57;7.45;;;;;;;8.05;100.00;99524.31;5050445;28;20045;-77
2022/04/27 05:50:06;;;;;;;10.95;7.63;;;;;;;8.18;100.00;99524.72;5051595;28;20519;-77
2022/04/27 05:52:44;;;;;;;14.52;8.50;;;;;;;8.17;100.00;99525.72;5045779;28;20049;-77
2022/04/27 05:55:12;;;;;;;11.80;8.38;;;;;;;8.31;100.00;99545.97;5038003;28;20053;-78
2022/04/27 05:57:39;;;;;;;12.63;7.75;;;;;;;8.19;100.00;99520.16;5046586;28;20045;-78
2022/04/27 06:00:07;;;;;;;11.02;7.82;;;;;;;8.21;100.00;99527.09;5041823;28;20056;-77
2022/04/27 06:02:33;;;;;;;11.55;8.10;;;;;;;8.36;100.00;99527.34;5047953;28;20049;-77
2022/04/27 06:05:00;;;;;;;13.65;7.95;;;;;;;8.32;100.00;99524.13;5041500;28;20616;-77
2022/04/27 06:07:26;;;;;;;13.80;9.02;;;;;;;8.41;100.00;99535.00;5049990;28;20057;-77
2022/04/27 06:09:53;;;;;;;10.23;7.45;;;;;;;8.38;100.00;99554.28;5044951;28;20052;-77
2022/04/27 06:12:23;;;;;;;10.73;7.57;;;;;;;8.29;100.00;99524.44;5037626;28;20056;-77
2022/04/27 06:14:50;;;;;;;12.40;8.07;;;;;;;8.37;100.00;99560.69;5036194;28;20073;-77
2022/04/27 06:17:17;;;;;;;11.55;7.65;;;;;;;8.45;100.00;99561.63;5044163;28;20052;-77
2022/04/27 06:19:44;;;;;;;11.48;7.20;;;;;;;8.22;100.00;99533.38;5042357;28;20067;-78
2022/04/27 06:22:10;;;;;;;11.43;7.88;;;;;;;8.30;100.00;99552.38;5041082;28;20056;-77
2022/04/27 06:24:37;;;;;;;12.63;7.85;;;;;;;8.27;100.00;99536.47;5041231;28;20045;-78
2022/04/27 06:27:04;;;;;;;13.15;7.43;;;;;;;8.51;100.00;99543.88;5036309;28;20047;-78
2022/04/27 06:29:32;;;;;;;12.05;7.88;;;;;;;8.85;100.00;99568.25;5056725;28;20056;-77
2022/04/27 06:31:58;;;;;;;9.90;7.00;;;;;;;8.52;100.00;99534.75;5052473;28;20068;-78
2022/04/27 06:34:25;;;;;;;12.57;8.43;;;;;;;8.78;100.00;99558.25;5039306;28;20049;-77
2022/04/27 06:36:51;;;;;;;10.52;6.93;;;;;;;9.19;100.00;99564.59;5046833;28;20427;-77
2022/04/27 06:39:18;;;;;;;9.45;6.80;;;;;;;9.68;100.00;99543.97;5037771;28;20416;-78
2022/04/27 06:41:44;;;;;;;11.48;7.22;;;;;;;10.43;100.00;99532.84;5047277;28;20052;-77
2022/04/27 06:44:11;;;;;;;9.85;6.45;;;;;;;10.70;100.00;99563.31;5048804;28;20060;-78
2022/04/27 06:46:38;;;;;;;11.60;6.18;;;;;;;11.17;100.00;99534.38;5047831;28;20492;-77
2022/04/27 06:49:05;;;;;;;8.10;5.50;;;;;;;10.87;100.00;99557.81;5046337;28;20416;-78
2022/04/27 06:51:32;;;;;;;8.30;6.47;;;;;;;10.33;100.00;99558.47;5045358;28;20040;-77
2022/04/27 06:53:58;;;;;;;9.25;5.45;;;;;;;9.91;100.00;99552.28;5040645;28;20041;-77
2022/04/27 06:56:25;;;;;;;7.57;5.40;;;;;;;10.30;100.00;99559.69;5038123;28;20076;-78
2022/04/27 06:58:51;;;;;;;7.22;5.28;;;;;;;9.96;100.00;99573.50;5052137;28;20045;-78
2022/04/27 07:01:18;;;;;;;8.88;5.35;;;;;;;10.01;100.00;99580.13;5054009;28;20041;-78
2022/04/27 07:03:46;;;;;;;8.27;5.60;;;;;;;10.24;100.00;99601.16;5050597;28;20049;-77
2022/04/27 07:06:13;;;;;;;8.82;5.40;;;;;;;10.05;100.00;99588.75;5048336;28;20394;-78
2022/04/27 07:08:41;;;;;;;7.45;5.50;;;;;;;10.16;100.00;99599.28;5040780;28;20412;-78
2022/04/27 07:11:08;;;;;;;6.47;4.18;;;;;;;10.02;100.00;99608.97;5048816;28;20131;-77
2022/04/27 07:13:36;;;;;;;5.32;3.00;;;;;;;9.71;100.00;99606.94;5038563;28;20041;-77
2022/04/27 07:16:03;;;;;;;5.03;3.33;;;;;;;10.04;100.00;99614.22;5049183;28;20053;-77
2022/04/27 07:18:30;;;;;;;4.07;3.20;;;;;;;9.83;100.00;99585.72;5048829;28;20071;-77
2022/04/27 07:20:58;;;;;;;3.97;2.78;;;;;;;9.74;100.00;99595.72;5051816;28;20049;-77
2022/04/27 07:23:24;;;;;;;4.85;3.25;;;;;;;9.88;100.00;99583.34;5051199;28;20415;-78
2022/04/27 07:25:51;;;;;;;5.85;2.90;;;;;;;10.33;96.38;99616.44;5051914;28;20051;-77
2022/04/27 07:28:18;;;;;;;2.95;2.53;;;;;;;10.07;98.52;99595.72;5050701;28;20237;-78
2022/04/27 07:30:44;;;;;;;3.40;2.13;;;;;;;10.25;94.61;99591.97;5051834;28;20063;-78
2022/04/27 07:33:11;;;;;;;2.85;2.03;;;;;;;10.59;94.68;99582.75;5051050;28;20056;-78
2022/04/27 07:35:37;;;;;;;2.30;1.92;;;;;;;11.00;93.59;99604.34;5049528;28;20053;-77
2022/04/27 07:38:06;;;;;;;2.67;2.20;;;;;;;11.08;90.80;99617.91;5051522;28;20049;-78
2022/04/27 07:40:32;;;;;;;3.58;2.20;;;;;;;10.93;90.89;99611.50;5051241;28;20057;-78
2022/04/27 07:42:59;;;;;;;3.30;2.25;;;;;;;10.93;90.35;99615.09;5051048;28;20045;-78
2022/04/27 07:45:25;;;;;;;2.90;1.80;;;;;;;10.88;90.14;99613.91;5051296;28;20052;-78
2022/04/27 07:47:52;;;;;;;3.53;2.38;;;;;;;10.98;93.02;99620.00;5050030;28;20052;-78
2022/04/27 07:50:19;;;;;;;2.75;2.17;;;;;;;11.10;94.53;99634.91;5049407;28;20049;-78
2022/04/27 07:52:46;;;;;;;3.03;2.28;;;;;;;11.11;93.49;99654.78;5050012;28;20168;-78
2022/04/27 07:55:14;;;;;;;2.17;1.83;;;;;;;11.00;93.75;99655.19;5051426;28;20045;-78
2022/04/27 07:57:40;;;;;;;3.30;2.50;;;;;;;10.94;92.81;99643.13;5050055;28;20057;-78
2022/04/27 08:00:09;;;;;;;2.92;2.28;;;;;;;10.88;90.44;99647.41;5051668;28;20444;-78
2022/04/27 08:02:36;;;;;;;3.50;2.13;;;;;;;10.94;92.20;99651.28;5050120;28;20057;-78
2022/04/27 08:05:03;;;;;;;3.53;2.53;;;;;;;10.91;91.03;99644.31;5051431;28;20098;-78
2022/04/27 08:07:36;;;;;;;2.83;2.30;;;;;;;10.98;92.43;99656.19;5047767;28;20076;-78
2022/04/27 08:10:08;;;;;;;2.80;2.20;;;;;;;11.04;89.60;99635.63;5049845;28;20045;-77
2022/04/27 08:12:36;;;;;;;3.08;2.20;;;;;;;11.41;87.65;99668.59;5050584;28;20382;-78
2022/04/27 08:15:03;;;;;;;2.33;1.92;;;;;;;11.39;88.73;99654.34;5043606;28;20052;-78
2022/04/27 08:17:30;;;;;;;2.28;2.08;;;;;;;11.43;88.51;99636.63;5051251;28;20056;-78
2022/04/27 08:21:13;;;;;;;2.75;2.13;;;;;;;11.51;82.85;99639.28;5049220;28;20473;-78
2022/04/27 08:22:43;;;;;;;2.08;1.70;;;;;;;11.29;87.59;99635.50;5049090;28;20084;-78
2022/04/27 08:25:10;;;;;;;3.25;1.50;;;;;;;11.75;86.39;99653.78;5048342;28;20048;-78
2022/04/27 08:27:38;;;;;;;2.90;1.75;;;;;;;11.94;85.46;99644.28;5046522;28;20053;-78
2022/04/27 08:30:06;;;;;;;2.78;2.08;;;;;;;12.01;83.37;99673.38;5050497;28;20512;-78
2022/04/27 08:32:32;;;;;;;3.03;2.05;;;;;;;11.87;83.25;99653.16;5050189;28;20131;-78
2022/04/27 08:34:59;;;;;;;2.05;1.60;;;;;;;11.94;78.63;99656.06;5049831;28;20041;-78
2022/04/27 08:37:25;;;;;;;2.40;1.85;;;;;;;12.06;78.62;99644.72;5051172;28;20049;-78
2022/04/27 08:39:52;;;;;;;2.03;1.70;;;;;;;12.21;79.21;99681.06;5051173;28;20045;-78
2022/04/27 08:42:19;;;;;;;2.58;1.75;;;;;;;12.09;78.53;99641.63;5050288;28;20041;-77
2022/04/27 08:44:47;;;;;;;2.08;1.75;;;;;;;12.38;77.78;99666.25;5048150;28;20041;-78
2022/04/27 08:47:13;;;;;;;2.83;2.10;;;;;;;12.26;77.65;99678.63;5049581;28;20059;-78
2022/04/27 08:49:40;;;;;;;2.33;2.05;;;;;;;12.55;76.94;99674.28;5046933;28;20052;-78
2022/04/27 08:52:07;;;;;;;2.47;1.70;;;;;;;12.69;77.95;99653.50;5047848;28;20049;-78
2022/04/27 08:54:34;;;;;;;1.67;1.52;;;;;;;12.77;77.14;99671.66;5049554;28;20102;-77
2022/04/27 08:57:01;;;;;;;2.85;1.67;;;;;;;12.96;74.29;99671.09;5050277;28;20131;-78
2022/04/27 08:59:27;;;;;;;2.50;1.92;;;;;;;12.69;75.70;99656.22;5050681;28;20430;-78
2022/04/27 09:01:55;;;;;;;2.58;1.90;;;;;;;12.51;73.75;99652.00;5050597;28;20045;-78
2022/04/27 09:04:22;;;;;;;2.72;1.85;;;;;;;13.01;73.54;99687.78;5050037;28;20048;-78
2022/04/27 09:06:49;;;;;;;2.35;1.88;;;;;;;13.15;73.85;99682.50;5048625;28;20036;-78
2022/04/27 09:09:31;;;;;;;3.03;1.80;;;;;;;12.98;70.94;99660.03;5050277;28;20063;-78
2022/04/27 09:11:58;;;;;;;2.30;1.73;;;;;;;12.94;73.56;99662.28;5046383;28;20489;-78
2022/04/27 09:14:36;;;;;;;2.67;2.25;;;;;;;13.20;76.60;99659.06;5047733;28;20060;-78
2022/04/27 09:22:44;;;;;;;2.42;1.85;;;;;;;13.48;75.88;99679.41;5048077;28;20048;-78
2022/04/27 09:25:11;;;;;;;4.40;2.55;;;;;;;13.43;73.96;99688.19;5046397;28;20055;-78
2022/04/27 09:27:38;;;;;;;2.58;2.00;;;;;;;13.17;74.33;99674.97;5050275;28;20049;-78
2022/04/27 09:30:07;;;;;;;2.70;2.13;;;;;;;13.64;73.03;99665.53;5049329;28;20052;-78
2022/04/27 09:32:35;;;;;;;3.03;2.25;;;;;;;14.07;75.32;99683.84;5048171;28;20059;-78
2022/04/27 09:35:03;;;;;;;2.35;2.05;;;;;;;13.80;72.57;99695.34;5049286;28;20135;-78
2022/04/27 09:37:38;;;;;;;2.90;2.30;;;;;;;14.07;76.83;99702.97;5049705;28;20078;-78
2022/04/27 09:40:07;;;;;;;2.70;2.13;;;;;;;14.10;70.31;99676.06;5050392;28;20049;-78
2022/04/27 09:42:34;;;;;;;3.42;2.08;;;;;;;13.95;73.82;99692.53;5049157;28;20060;-78
2022/04/27 09:45:18;;;;;;;3.03;1.98;;;;;;;14.36;75.83;99684.72;5049566;28;20057;-78
2022/04/27 09:47:47;;;;;;;2.78;1.98;;;;;;;14.31;71.16;99677.94;5046627;28;20049;-78
2022/04/27 09:50:14;;;;;;;3.22;2.20;;;;;;;14.62;74.81;99684.16;5049791;28;20059;-78
2022/04/27 09:52:41;;;;;;;2.50;2.13;;;;;;;13.94;72.51;99666.25;5050316;28;20489;-78
2022/04/27 09:55:08;;;;;;;3.00;2.30;;;;;;;13.96;73.93;99660.59;5049919;28;20048;-78
2022/04/27 09:57:39;;;;;;;6.25;2.75;;;;;;;14.06;75.00;99672.06;5049206;28;20045;-78
2022/04/27 10:00:07;;;;;;;4.75;2.40;;;;;;;13.83;76.24;99682.31;5051941;28;20063;-78
2022/04/27 10:02:34;;;;;;;6.47;2.78;;;;;;;13.96;76.02;99693.41;5052200;28;20455;-78
2022/04/27 10:05:03;;;;;;;3.30;2.45;;;;;;;13.55;73.73;99680.31;5053389;28;20500;-78
2022/04/27 10:07:32;;;;;;;3.55;2.92;;;;;;;13.86;81.32;99685.50;5053420;28;20131;-78
2022/04/27 10:09:59;;;;;;;5.05;3.03;;;;;;;13.99;77.87;99685.66;5045604;28;20055;-78
2022/04/27 10:12:25;;;;;;;4.43;2.60;;;;;;;14.41;82.12;99694.03;5053076;28;20136;-78
2022/04/27 10:14:52;;;;;;;4.60;2.83;;;;;;;14.24;74.23;99665.25;5050196;28;20483;-78
2022/04/27 10:17:19;;;;;;;3.22;2.50;;;;;;;14.48;73.80;99656.66;5052516;28;20496;-78
2022/04/27 10:19:46;;;;;;;3.72;2.72;;;;;;;14.31;72.90;99671.66;5051170;28;20484;-78
2022/04/27 10:22:27;;;;;;;6.97;2.95;;;;;;;14.33;77.07;99654.00;5052665;28;20071;-78
2022/04/27 10:24:55;;;;;;;3.45;2.65;;;;;;;14.47;74.09;99670.53;5052533;28;20515;-78
2022/04/27 10:27:23;;;;;;;4.70;2.58;;;;;;;14.09;72.07;99689.94;5053246;28;20059;-78
2022/04/27 10:29:52;;;;;;;4.63;3.15;;;;;;;14.21;73.17;99696.59;5052009;28;20048;-78
2022/04/27 10:32:38;;;;;;;4.45;2.97;;;;;;;14.48;70.15;99684.00;5051491;28;20053;-78
2022/04/27 10:35:19;;;;;;;4.60;3.13;;;;;;;14.61;73.71;99679.72;5052576;28;20045;-78
2022/04/27 10:37:48;;;;;;;4.28;3.08;;;;;;;14.52;71.86;99651.63;5052668;28;20127;-78
2022/04/27 10:40:32;;;;;;;4.10;2.67;;;;;;;15.02;69.26;99674.31;5052865;28;20049;-78
2022/04/27 10:43:10;;;;;;;2.95;2.35;;;;;;;15.16;67.71;99666.16;5052222;28;20299;-78
2022/04/27 10:45:38;;;;;;;3.97;2.75;;;;;;;15.11;68.48;99661.28;5051644;28;20052;-78
2022/04/27 10:48:07;;;;;;;3.75;2.58;;;;;;;15.18;69.42;99673.13;5052855;28;20056;-78
2022/04/27 10:50:35;;;;;;;5.22;2.50;;;;;;;14.99;68.67;99651.97;5051551;28;20057;-78
2022/04/27 10:53:22;;;;;;;3.08;2.47;;;;;;;14.77;69.08;99653.91;5051644;28;20052;-78
2022/04/27 10:55:54;;;;;;;3.25;2.58;;;;;;;14.52;70.19;99685.28;5046708;28;20044;-78
2022/04/27 10:58:32;;;;;;;3.15;2.53;;;;;;;14.62;69.04;99685.00;5051934;28;20074;-78
2022/04/27 11:01:27;;;;;;;4.00;3.22;;;;;;;14.28;70.92;99685.72;5049660;28;20123;-78
2022/04/27 11:03:59;;;;;;;5.03;2.70;;;;;;;14.51;70.65;99650.78;5051445;28;20546;-78
2022/04/27 11:06:25;;;;;;;3.67;2.92;;;;;;;14.86;70.20;99680.13;5052403;28;20045;-78
2022/04/27 11:09:10;;;;;;;7.85;3.03;;;;;;;14.33;68.11;99661.34;5051666;28;20055;-78
2022/04/27 11:11:52;;;;;;;4.38;3.30;;;;;;;14.39;69.33;99679.72;5041548;28;20047;-78
2022/04/27 11:14:21;;;;;;;5.55;3.22;;;;;;;14.61;72.17;99690.66;5044598;28;20056;-78
2022/04/27 11:16:48;;;;;;;2.97;2.65;;;;;;;14.37;69.62;99673.59;5052170;28;20090;-78
2022/04/27 11:19:15;;;;;;;3.55;2.80;;;;;;;14.50;68.77;99687.38;5052153;28;20398;-78
2022/04/27 11:21:42;;;;;;;3.78;2.95;;;;;;;14.33;71.23;99689.56;5051945;28;20049;-78
2022/04/27 11:24:11;;;;;;;3.67;2.95;;;;;;;14.35;69.27;99664.75;5051154;28;20049;-78
2022/04/27 11:26:48;;;;;;;4.72;3.05;;;;;;;14.07;70.29;99657.34;5051503;28;20060;-78
2022/04/27 11:29:16;;;;;;;4.68;3.03;;;;;;;14.09;70.69;99660.72;5048064;28;20049;-78
2022/04/27 11:31:43;;;;;;;4.65;3.28;;;;;;;14.40;70.88;99667.72;5051814;28;20489;-78
2022/04/27 11:34:28;;;;;;;3.42;2.75;;;;;;;14.32;71.77;99656.94;5051184;28;20122;-78
2022/04/27 11:36:56;;;;;;;3.40;2.97;;;;;;;14.51;71.24;99658.13;5051478;28;20037;-78
2022/04/27 11:39:25;;;;;;;3.22;2.75;;;;;;;14.71;74.68;99671.16;5051142;28;20080;-78
2022/04/27 11:41:59;;;;;;;3.97;3.05;;;;;;;14.64;68.30;99679.31;5045975;28;20076;-78
2022/04/27 11:44:26;;;;;;;4.07;3.67;;;;;;;14.48;65.86;99685.88;5048345;28;20099;-78
2022/04/27 11:46:53;;;;;;;4.13;3.33;;;;;;;14.43;68.69;99678.28;5051330;28;20064;-78